createdAt,value
2019-05-11T00:02:25.029Z,91.74
2019-05-11T00:04:54.646Z,92.60
2019-05-11T00:18:03.039Z,92.62
2019-05-11T00:20:33.977Z,92.79
2019-05-11T00:23:02.861Z,92.53
2019-05-11T00:25:31.716Z,91.81
2019-05-11T00:28:00.706Z,91.59
2019-05-11T00:30:29.580Z,91.59
2019-05-11T00:32:59.190Z,91.79
2019-05-11T00:35:28.029Z,91.28
2019-05-11T00:37:57.037Z,91.44
2019-05-11T00:40:25.961Z,91.87
2019-05-11T00:42:54.809Z,92.03
2019-05-11T00:45:23.694Z,91.89
2019-05-11T00:47:52.689Z,92.05
2019-05-11T00:50:37.585Z,91.28
2019-05-11T00:52:52.405Z,91.44
2019-05-11T00:55:21.340Z,91.33
2019-05-11T00:57:50.239Z,91.07
2019-05-11T01:00:19.285Z,90.70
2019-05-11T01:02:49.076Z,91.21
2019-05-11T01:05:18.071Z,91.89
2019-05-11T01:07:46.847Z,91.16
2019-05-11T01:10:25.706Z,91.41
2019-05-11T01:12:46.791Z,91.49
2019-05-11T01:15:16.088Z,91.72
2019-05-11T01:17:44.987Z,91.13
2019-05-11T01:20:14.256Z,92.05
2019-05-11T01:22:43.207Z,92.15
2019-05-11T01:25:12.245Z,92.39
2019-05-11T01:27:41.065Z,92.83
2019-05-11T01:30:10.497Z,92.70
2019-05-11T01:32:39.712Z,91.10
2019-05-11T01:35:08.694Z,90.92
2019-05-11T01:37:37.786Z,90.89
2019-05-11T01:40:07.527Z,91.28
2019-05-11T01:42:36.522Z,91.67
2019-05-11T01:45:05.672Z,90.98
2019-05-11T01:47:34.493Z,91.21
2019-05-11T01:50:03.484Z,91.46
2019-05-11T01:52:32.330Z,90.16
2019-05-11T01:55:02.936Z,89.35
2019-05-11T01:57:34.005Z,90.71
2019-05-11T02:00:03.115Z,91.96
2019-05-11T02:02:31.928Z,92.26
2019-05-11T02:05:20.914Z,90.70
2019-05-11T02:07:49.815Z,91.51
2019-05-11T02:10:18.895Z,90.92
2019-05-11T02:12:48.260Z,89.72
2019-05-11T02:15:17.354Z,90.25
2019-05-11T02:17:46.180Z,91.03
2019-05-11T02:20:15.399Z,91.37
2019-05-11T02:22:44.308Z,91.04
2019-05-11T02:25:13.751Z,91.13
2019-05-11T02:27:43.129Z,92.16
2019-05-11T02:30:12.490Z,92.34
2019-05-11T02:32:41.453Z,91.45
2019-05-11T02:35:12.410Z,91.62
2019-05-11T02:37:41.196Z,91.77
2019-05-11T02:40:11.864Z,92.56
2019-05-11T02:42:41.160Z,92.11
2019-05-11T02:45:10.536Z,92.23
2019-05-11T02:47:39.490Z,92.46
2019-05-11T02:50:08.853Z,92.47
2019-05-11T02:52:38.662Z,92.86
2019-05-11T02:55:08.194Z,93.19
2019-05-11T02:57:38.146Z,91.97
2019-05-11T03:00:08.245Z,91.93
2019-05-11T03:02:37.062Z,92.60
2019-05-11T03:05:07.876Z,92.81
2019-05-11T03:07:36.824Z,92.96
2019-05-11T03:10:07.030Z,92.45
2019-05-11T03:12:36.782Z,90.74
2019-05-11T03:15:06.261Z,91.09
2019-05-11T03:17:35.214Z,91.71
2019-05-11T03:20:04.238Z,92.22
2019-05-11T03:22:33.171Z,92.05
2019-05-11T03:25:02.151Z,92.39
2019-05-11T03:27:31.044Z,93.13
2019-05-11T03:30:01.495Z,92.97
2019-05-11T03:32:30.550Z,93.08
2019-05-11T03:34:59.637Z,93.79
2019-05-11T03:37:28.493Z,94.00
2019-05-11T03:39:57.545Z,94.01
2019-05-11T03:42:27.223Z,93.61
2019-05-11T03:44:56.231Z,93.56
2019-05-11T03:47:25.290Z,92.69
2019-05-11T03:49:54.124Z,92.29
2019-05-11T03:52:22.996Z,92.65
2019-05-11T03:54:51.834Z,92.99
2019-05-11T03:57:21.062Z,91.95
2019-05-11T03:59:50.358Z,91.82
2019-05-11T04:02:19.201Z,92.12
2019-05-11T04:04:48.033Z,92.14
2019-05-11T04:07:16.981Z,92.01
2019-05-11T04:09:45.846Z,92.26
2019-05-11T04:12:32.921Z,92.59
2019-05-11T04:14:45.656Z,92.67
2019-05-11T04:17:14.495Z,92.65
2019-05-11T04:19:43.327Z,92.98
2019-05-11T04:22:12.256Z,92.88
2019-05-11T04:24:41.167Z,93.34
2019-05-11T04:27:10.140Z,93.06
2019-05-11T04:29:38.958Z,93.15
2019-05-11T04:32:07.907Z,93.55
2019-05-11T04:34:37.068Z,93.45
2019-05-11T04:37:07.601Z,93.08
2019-05-11T04:39:36.863Z,92.85
2019-05-11T04:42:05.747Z,93.45
2019-05-11T04:44:34.882Z,93.55
2019-05-11T04:47:03.755Z,93.86
2019-05-11T04:49:32.604Z,94.22
2019-05-11T04:52:01.426Z,94.27
2019-05-11T04:54:30.442Z,93.89
2019-05-11T04:56:59.415Z,93.65
2019-05-11T04:59:28.293Z,93.49
2019-05-11T05:01:57.260Z,93.44
2019-05-11T05:04:26.073Z,93.36
2019-05-11T05:06:59.791Z,93.54
2019-05-11T05:09:25.803Z,93.10
2019-05-11T05:11:54.687Z,92.57
2019-05-11T05:14:23.575Z,92.48
2019-05-11T05:16:52.469Z,91.88
2019-05-11T05:19:21.343Z,91.38
2019-05-11T05:21:50.178Z,91.23
2019-05-11T05:24:19.080Z,90.32
2019-05-11T05:26:47.984Z,89.07
2019-05-11T05:29:16.832Z,88.82
2019-05-11T05:31:45.800Z,87.02
2019-05-11T05:34:14.658Z,82.49
2019-05-11T05:36:43.469Z,84.74
2019-05-11T05:39:12.435Z,83.24
2019-05-11T05:41:42.858Z,81.19
2019-05-11T05:44:11.827Z,71.54
2019-05-11T05:46:40.862Z,80.36
2019-05-11T05:49:09.772Z,79.97
2019-05-11T05:51:38.631Z,62.81
2019-05-11T05:54:07.499Z,61.52
2019-05-11T05:56:36.304Z,58.60
2019-05-11T05:59:05.265Z,58.60
2019-05-11T06:01:34.116Z,57.13
2019-05-11T06:04:03.278Z,55.21
2019-05-11T06:06:32.081Z,55.09
2019-05-11T06:09:00.921Z,53.22
2019-05-11T06:11:30.313Z,52.20
2019-05-11T06:13:59.473Z,52.18
2019-05-11T06:16:28.353Z,50.43
2019-05-11T06:18:57.290Z,51.96
2019-05-11T06:21:26.147Z,48.16
2019-05-11T06:23:55.312Z,50.68
2019-05-11T06:26:24.301Z,51.04
2019-05-11T06:28:53.098Z,49.11
2019-05-11T06:31:21.918Z,51.26
2019-05-11T06:33:50.869Z,49.31
2019-05-11T06:36:19.935Z,48.12
2019-05-11T06:38:49.047Z,51.77
2019-05-11T06:41:17.892Z,52.20
2019-05-11T06:44:00.746Z,50.90
2019-05-11T06:46:17.601Z,50.94
2019-05-11T06:48:46.550Z,55.50
2019-05-11T06:51:15.409Z,56.31
2019-05-11T06:53:44.356Z,57.18
2019-05-11T06:56:13.143Z,58.08
2019-05-11T06:58:45.388Z,58.28
2019-05-11T07:01:12.980Z,59.89
2019-05-11T07:03:41.793Z,57.31
2019-05-11T07:06:10.671Z,60.18
2019-05-11T07:08:39.534Z,60.37
2019-05-11T07:11:08.553Z,60.92
2019-05-11T07:13:37.849Z,58.86
2019-05-11T07:16:06.891Z,55.95
2019-05-11T07:18:35.752Z,61.39
2019-05-11T07:21:04.621Z,62.53
2019-05-11T07:23:33.550Z,62.17
2019-05-11T07:26:03.557Z,62.55
2019-05-11T07:28:32.373Z,64.88
2019-05-11T07:31:01.462Z,64.17
2019-05-11T07:33:30.633Z,64.50
2019-05-11T07:36:00.459Z,62.85
2019-05-11T07:38:35.452Z,63.91
2019-05-11T07:41:08.785Z,61.99
2019-05-11T07:43:38.124Z,61.99
2019-05-11T07:46:08.607Z,61.21
2019-05-11T07:48:38.736Z,59.32
2019-05-11T07:51:08.902Z,57.19
2019-05-11T07:53:40.630Z,57.78
2019-05-11T07:56:47.887Z,57.97
2019-05-11T07:59:18.422Z,55.38
2019-05-11T08:01:50.539Z,55.38
2019-05-11T08:04:20.154Z,54.61
2019-05-11T08:06:49.107Z,56.71
2019-05-11T08:09:18.783Z,54.30
2019-05-11T08:14:24.597Z,54.14
2019-05-11T08:17:08.746Z,53.54
2019-05-11T08:19:38.578Z,50.76
2019-05-11T08:22:08.678Z,51.97
2019-05-11T08:24:37.881Z,51.09
2019-05-11T08:27:08.496Z,52.16
2019-05-11T08:29:38.619Z,52.21
2019-05-11T08:32:08.300Z,53.47
2019-05-11T08:34:39.613Z,54.10
2019-05-11T08:37:08.960Z,53.74
2019-05-11T08:39:44.119Z,53.74
2019-05-11T08:42:13.149Z,51.49
2019-05-11T08:44:41.977Z,49.63
2019-05-11T08:47:24.030Z,52.98
2019-05-11T08:49:48.469Z,51.52
2019-05-11T08:52:18.754Z,50.13
2019-05-11T08:54:48.686Z,49.90
2019-05-11T08:57:18.960Z,49.90
2019-05-11T09:00:35.863Z,50.75
2019-05-11T09:03:05.832Z,50.66
2019-05-11T09:05:35.338Z,48.76
2019-05-11T09:08:05.017Z,48.26
2019-05-11T09:10:36.850Z,50.46
2019-05-11T09:13:04.674Z,49.86
2019-05-11T09:15:38.254Z,53.31
2019-05-11T09:18:04.395Z,50.55
2019-05-11T09:20:33.211Z,50.55
2019-05-11T09:23:03.159Z,50.07
2019-05-11T09:25:48.946Z,50.82
2019-05-11T09:28:18.272Z,48.75
2019-05-11T09:30:48.341Z,48.75
2019-05-11T09:33:20.174Z,49.49
2019-05-11T09:35:53.102Z,50.08
2019-05-11T09:38:19.672Z,51.52
2019-05-11T09:40:51.434Z,49.10
2019-05-11T09:43:20.452Z,49.10
2019-05-11T09:48:48.447Z,47.86
2019-05-11T09:51:18.438Z,49.07
2019-05-11T09:53:48.449Z,48.46
2019-05-11T09:56:18.494Z,47.78
2019-05-11T09:58:48.162Z,47.97
2019-05-11T10:01:18.243Z,46.47
2019-05-11T10:03:48.316Z,45.51
2019-05-11T10:06:18.922Z,48.01
2019-05-11T10:08:48.870Z,47.67
2019-05-11T10:11:20.151Z,45.04
2019-05-11T10:13:52.665Z,47.05
2019-05-11T10:16:22.056Z,44.03
2019-05-11T10:18:51.037Z,44.62
2019-05-11T10:21:20.059Z,46.65
2019-05-11T10:23:49.227Z,45.22
2019-05-11T10:26:18.845Z,43.22
2019-05-11T10:28:48.323Z,44.62
2019-05-11T10:31:18.195Z,46.03
2019-05-11T10:33:48.969Z,45.86
2019-05-11T10:36:19.016Z,44.02
2019-05-11T10:38:48.880Z,43.56
2019-05-11T10:41:18.367Z,44.74
2019-05-11T10:43:48.963Z,44.33
2019-05-11T10:46:22.994Z,44.33
2019-05-11T10:48:48.825Z,44.41
2019-05-11T10:51:18.554Z,43.53
2019-05-11T10:53:51.248Z,43.48
2019-05-11T10:56:19.610Z,42.38
2019-05-11T10:58:50.284Z,43.73
2019-05-11T11:04:24.762Z,42.82
2019-05-11T11:06:55.836Z,43.46
2019-05-11T11:09:24.881Z,44.38
2019-05-11T11:11:53.881Z,43.53
2019-05-11T11:14:23.917Z,43.16
2019-05-11T11:16:52.937Z,44.03
2019-05-11T11:19:22.042Z,45.25
2019-05-11T11:21:51.216Z,43.11
2019-05-11T11:24:20.134Z,43.14
2019-05-11T11:26:49.363Z,43.67
2019-05-11T11:29:18.540Z,42.28
2019-05-11T11:31:48.139Z,42.96
2019-05-11T11:34:18.862Z,40.20
2019-05-11T11:36:48.477Z,42.19
2019-05-11T11:39:18.694Z,41.13
2019-05-11T11:41:48.594Z,42.76
2019-05-11T11:44:18.507Z,42.89
2019-05-11T11:46:54.499Z,42.69
2019-05-11T11:49:19.080Z,42.44
2019-05-11T11:51:48.550Z,43.43
2019-05-11T11:54:18.327Z,40.64
2019-05-11T11:56:48.528Z,41.89
2019-05-11T11:59:18.080Z,42.14
2019-05-11T12:01:48.797Z,41.06
2019-05-11T12:04:18.930Z,42.26
2019-05-11T12:06:49.000Z,40.63
2019-05-11T12:09:18.396Z,41.82
2019-05-11T12:11:48.578Z,42.25
2019-05-11T12:14:18.658Z,41.06
2019-05-11T12:17:04.878Z,42.14
2019-05-11T12:19:27.865Z,41.11
2019-05-11T12:21:58.088Z,43.60
2019-05-11T12:24:28.844Z,42.28
2019-05-11T12:26:58.719Z,43.85
2019-05-11T12:29:28.243Z,40.56
2019-05-11T12:31:59.252Z,40.32
2019-05-11T12:34:28.519Z,39.82
2019-05-11T12:36:58.111Z,42.17
2019-05-11T12:39:28.276Z,44.36
2019-05-11T12:41:58.950Z,43.20
2019-05-11T12:44:28.904Z,41.85
2019-05-11T12:47:01.467Z,42.19
2019-05-11T12:49:30.506Z,42.11
2019-05-11T12:51:59.563Z,43.00
2019-05-11T12:54:33.541Z,40.99
2019-05-11T12:57:01.238Z,38.56
2019-05-11T12:59:30.292Z,39.42
2019-05-11T13:01:59.283Z,39.15
2019-05-11T13:04:28.464Z,40.19
2019-05-11T13:06:58.188Z,40.96
2019-05-11T13:09:48.775Z,41.62
2019-05-11T13:12:18.674Z,40.72
2019-05-11T13:14:50.344Z,38.97
2019-05-11T13:17:34.228Z,40.64
2019-05-11T13:19:53.945Z,39.84
2019-05-11T13:22:22.962Z,39.92
2019-05-11T13:24:51.961Z,40.51
2019-05-11T13:27:21.009Z,40.64
2019-05-11T13:29:50.338Z,40.33
2019-05-11T13:32:19.306Z,38.31
2019-05-11T13:34:48.348Z,38.26
2019-05-11T13:37:18.813Z,37.99
2019-05-11T13:39:48.635Z,38.26
2019-05-11T13:42:19.497Z,36.36
2019-05-11T13:44:48.434Z,36.03
2019-05-11T13:47:18.229Z,36.47
2019-05-11T13:49:48.054Z,34.99
2019-05-11T13:52:18.072Z,36.38
2019-05-11T13:54:48.344Z,41.84
2019-05-11T13:57:18.163Z,36.35
2019-05-11T13:59:47.740Z,38.68
2019-05-11T14:07:34.488Z,37.88
2019-05-11T14:10:03.433Z,37.01
2019-05-11T14:12:32.331Z,37.26
2019-05-11T14:15:12.091Z,37.02
2019-05-11T14:17:40.996Z,36.98
2019-05-11T14:20:25.048Z,36.73
2019-05-11T14:22:53.916Z,38.54
2019-05-11T14:25:27.317Z,39.78
2019-05-11T14:27:59.589Z,40.19
2019-05-11T14:30:28.317Z,37.72
2019-05-11T14:32:58.061Z,39.33
2019-05-11T14:35:28.011Z,39.00
2019-05-11T14:37:58.809Z,37.87
2019-05-11T14:40:28.226Z,39.28
2019-05-11T14:42:58.048Z,38.36
2019-05-11T14:45:28.789Z,37.55
2019-05-11T14:47:59.060Z,37.48
2019-05-11T14:50:28.297Z,40.25
2019-05-11T14:52:58.059Z,39.33
2019-05-11T14:55:28.971Z,38.19
2019-05-11T14:57:57.899Z,35.85
2019-05-11T15:00:29.054Z,33.90
2019-05-11T15:02:58.435Z,34.10
2019-05-11T15:05:28.294Z,35.08
2019-05-11T15:07:58.149Z,34.97
2019-05-11T15:10:27.870Z,35.92
2019-05-11T15:12:59.015Z,36.21
2019-05-11T15:15:29.360Z,36.32
2019-05-11T15:17:58.855Z,35.20
2019-05-11T15:20:28.524Z,35.37
2019-05-11T15:22:58.129Z,32.34
2019-05-11T15:25:28.858Z,28.24
2019-05-11T15:27:58.528Z,22.91
2019-05-11T15:30:28.803Z,21.37
2019-05-11T15:32:58.444Z,23.91
2019-05-11T15:35:28.482Z,26.08
2019-05-11T15:37:58.224Z,27.58
2019-05-11T15:40:27.829Z,26.29
2019-05-11T15:42:58.560Z,26.18
2019-05-11T15:45:27.903Z,25.70
2019-05-11T15:47:58.930Z,27.30
2019-05-11T15:50:29.018Z,21.44
2019-05-11T15:52:58.439Z,21.74
2019-05-11T15:55:27.949Z,22.03
2019-05-11T15:58:02.022Z,21.53
2019-05-11T16:00:31.310Z,21.45
2019-05-11T16:03:00.369Z,20.67
2019-05-11T16:05:29.316Z,22.00
2019-05-11T16:08:01.697Z,21.35
2019-05-11T16:10:58.792Z,23.23
2019-05-11T16:14:15.946Z,23.80
2019-05-11T16:16:47.940Z,22.86
2019-05-11T16:19:28.153Z,23.72
2019-05-11T16:21:58.321Z,24.06
2019-05-11T16:24:27.168Z,23.88
2019-05-11T16:26:58.276Z,23.93
2019-05-11T16:29:27.995Z,24.26
2019-05-11T16:31:57.823Z,23.42
2019-05-11T16:34:28.000Z,26.10
2019-05-11T16:36:56.815Z,24.82
2019-05-11T16:39:28.211Z,26.65
2019-05-11T16:41:59.258Z,25.40
2019-05-11T16:44:30.163Z,25.92
2019-05-11T16:47:00.878Z,28.78
2019-05-11T16:49:32.649Z,35.99
2019-05-11T16:52:00.943Z,36.10
2019-05-11T16:54:29.868Z,35.85
2019-05-11T16:56:58.792Z,36.02
2019-05-11T16:59:27.628Z,36.37
2019-05-11T17:01:58.604Z,29.59
2019-05-11T17:04:31.242Z,29.86
2019-05-11T17:07:00.157Z,27.80
2019-05-11T17:09:29.108Z,26.84
2019-05-11T17:11:57.995Z,27.02
2019-05-11T17:14:28.174Z,30.54
2019-05-11T17:16:58.554Z,30.33
2019-05-11T17:19:42.154Z,31.81
2019-05-11T17:21:58.947Z,33.78
2019-05-11T17:24:28.322Z,35.99
2019-05-11T17:26:58.359Z,36.05
2019-05-11T17:29:27.581Z,38.52
2019-05-11T17:31:57.980Z,38.88
2019-05-11T17:34:28.513Z,38.25
2019-05-11T17:37:00.040Z,38.09
2019-05-11T17:39:28.268Z,38.88
2019-05-11T17:41:58.284Z,37.67
2019-05-11T17:44:27.376Z,38.11
2019-05-11T17:46:57.837Z,38.86
2019-05-11T17:49:27.763Z,38.25
2019-05-11T17:51:56.987Z,39.98
2019-05-11T17:54:28.344Z,40.57
2019-05-11T17:56:57.882Z,42.29
2019-05-11T17:59:33.278Z,42.02
2019-05-11T18:02:02.842Z,44.58
2019-05-11T18:04:33.098Z,44.62
2019-05-11T18:07:41.574Z,44.54
2019-05-11T18:10:14.774Z,46.30
2019-05-11T18:12:58.766Z,46.92
2019-05-11T18:15:29.704Z,46.81
2019-05-11T18:18:00.802Z,48.75
2019-05-11T18:20:30.666Z,49.90
2019-05-11T18:23:08.400Z,52.03
2019-05-11T18:25:38.974Z,51.35
2019-05-11T18:28:08.166Z,52.17
2019-05-11T18:30:38.808Z,55.01
2019-05-11T18:33:08.467Z,55.28
2019-05-11T18:35:37.632Z,53.76
2019-05-11T18:38:08.527Z,56.35
2019-05-11T18:40:38.242Z,57.44
2019-05-11T18:43:08.609Z,58.22
2019-05-11T18:45:38.427Z,59.18
2019-05-11T18:48:13.431Z,60.01
2019-05-11T18:50:41.036Z,58.85
2019-05-11T18:53:10.007Z,55.06
2019-05-11T18:55:39.099Z,54.89
2019-05-11T18:58:08.963Z,53.36
2019-05-11T19:00:38.249Z,55.43
2019-05-11T19:03:19.323Z,56.03
2019-05-11T19:05:50.479Z,57.47
2019-05-11T19:08:19.596Z,58.41
2019-05-11T19:10:48.830Z,58.75
2019-05-11T19:13:17.878Z,58.61
2019-05-11T19:15:48.742Z,59.80
2019-05-11T19:18:17.674Z,59.29
2019-05-11T19:20:49.323Z,59.17
2019-05-11T19:23:19.197Z,60.25
2019-05-11T19:25:48.164Z,59.52
2019-05-11T19:28:18.690Z,61.16
2019-05-11T19:30:48.772Z,61.03
2019-05-11T19:33:18.983Z,62.12
2019-05-11T19:35:48.228Z,60.91
2019-05-11T19:38:19.082Z,61.84
2019-05-11T19:40:48.503Z,61.84
2019-05-11T19:43:18.533Z,61.75
2019-05-11T19:45:48.711Z,61.85
2019-05-11T19:48:17.703Z,62.47
2019-05-11T19:51:00.885Z,64.77
2019-05-11T19:53:18.768Z,65.34
2019-05-11T19:55:48.877Z,63.60
2019-05-11T19:58:20.459Z,64.25
2019-05-11T20:00:49.496Z,63.72
2019-05-11T20:03:19.429Z,63.76
2019-05-11T20:05:48.667Z,64.17
2019-05-11T20:08:32.482Z,64.17
2019-05-11T20:11:01.438Z,63.89
2019-05-11T20:13:30.346Z,64.81
2019-05-11T20:15:59.130Z,64.22
2019-05-11T20:18:28.820Z,64.10
2019-05-11T20:20:58.058Z,65.23
2019-05-11T20:23:27.056Z,65.47
2019-05-11T20:25:58.244Z,64.65
2019-05-11T20:28:28.487Z,65.30
2019-05-11T20:31:00.310Z,65.30
2019-05-11T20:33:29.290Z,65.04
2019-05-11T20:35:58.289Z,65.19
2019-05-11T20:38:27.899Z,65.10
2019-05-11T20:40:57.727Z,65.62
2019-05-11T20:43:27.873Z,65.40
2019-05-11T20:45:58.026Z,65.90
2019-05-11T20:48:27.789Z,65.66
2019-05-11T20:50:57.714Z,67.44
2019-05-11T20:53:28.657Z,66.24
2019-05-11T20:55:58.270Z,66.74
2019-05-11T20:58:28.930Z,67.06
2019-05-11T21:00:58.238Z,67.52
2019-05-11T21:03:29.272Z,67.82
2019-05-11T21:05:59.253Z,66.88
2019-05-11T21:08:28.427Z,68.26
2019-05-11T21:10:58.177Z,67.28
2019-05-11T21:13:28.240Z,67.97
2019-05-11T21:15:59.281Z,67.35
2019-05-11T21:18:28.794Z,68.58
2019-05-11T21:20:57.893Z,68.95
2019-05-11T21:23:28.938Z,68.49
2019-05-11T21:25:58.759Z,67.77
2019-05-11T21:28:30.376Z,69.00
2019-05-11T21:30:58.634Z,69.06
2019-05-11T21:33:28.381Z,68.44
2019-05-11T21:35:58.036Z,68.22
2019-05-11T21:38:31.621Z,68.91
2019-05-11T21:40:58.649Z,68.44
2019-05-11T21:43:27.550Z,68.98
2019-05-11T21:45:58.272Z,68.92
2019-05-11T21:48:28.043Z,69.22
2019-05-11T21:50:59.740Z,69.08
2019-05-11T21:53:28.788Z,69.09
2019-05-11T21:55:58.475Z,69.49
2019-05-11T21:58:28.521Z,68.80
2019-05-11T22:00:57.676Z,68.72
2019-05-11T22:03:28.058Z,69.32
2019-05-11T22:05:57.845Z,69.87
2019-05-11T22:08:28.374Z,69.68
2019-05-11T22:11:00.042Z,70.35
2019-05-11T22:13:29.012Z,70.30
2019-05-11T22:15:58.197Z,69.03
2019-05-11T22:18:31.299Z,70.37
2019-05-11T22:20:58.167Z,69.84
2019-05-11T22:23:35.664Z,70.55
2019-05-11T22:26:04.715Z,70.26
2019-05-11T22:28:33.621Z,71.15
2019-05-11T22:31:02.622Z,70.66
2019-05-11T22:33:31.520Z,71.46
2019-05-11T22:36:00.326Z,70.86
2019-05-11T22:38:30.290Z,71.49
2019-05-11T22:40:59.193Z,72.65
2019-05-11T22:43:28.594Z,72.10
2019-05-11T22:45:58.170Z,71.17
2019-05-11T22:48:27.043Z,71.18
2019-05-11T22:50:56.019Z,71.05
2019-05-11T22:53:24.839Z,71.64
2019-05-11T22:55:53.648Z,70.80
2019-05-11T22:58:22.439Z,72.79
2019-05-11T23:01:00.219Z,72.58
2019-05-11T23:03:29.079Z,72.18
2019-05-11T23:05:58.249Z,72.04
2019-05-11T23:08:26.990Z,72.63
2019-05-11T23:11:03.425Z,72.87
2019-05-11T23:13:32.450Z,73.51
2019-05-11T23:16:01.270Z,72.73
2019-05-11T23:18:30.065Z,73.79
2019-05-11T23:20:58.934Z,73.55
2019-05-11T23:23:28.396Z,73.32
2019-05-11T23:25:57.988Z,73.80
2019-05-11T23:28:29.537Z,74.83
2019-05-11T23:30:58.414Z,75.66
2019-05-11T23:33:27.947Z,74.65
2019-05-11T23:35:58.781Z,75.74
2019-05-11T23:38:28.208Z,74.21
2019-05-11T23:40:58.701Z,74.96
2019-05-11T23:43:29.975Z,76.00
2019-05-11T23:45:58.464Z,75.22
2019-05-11T23:48:28.024Z,75.15
2019-05-11T23:50:58.058Z,75.00
2019-05-11T23:53:28.256Z,76.24
2019-05-11T23:55:57.939Z,76.38
2019-05-11T23:58:28.135Z,76.30
